Airport View

Enter AWOS ICAO identifier for current METAR.

ex. KFNL

KJYO 192000Z AUTO 32021G26KT 10SM BKN048 OVC060 01/M06 A2998 RMK AO2

19 Jan 2020 20:04

Frequency: 125.225

Phone: 703-777-3781

Other Area AWOS: KIAD - KGAI - KHEF - KFDK

TAF KIAD 191725Z 1918/2024 31015G24KT P6SM BKN050 FM192200 31015G25KT P6SM SCT050 FM200000 31012G20KT P6SM FEW040 FM201800 33011G18KT P6SM FEW200 FM202200 33010KT P6SM FEW200